Terminal Aerodrome Forecast
Issued by NWS

Home | Current Version | Previous Version | Graphics & Text | Print | Product List | Glossary On
Versions: 1 2 3 4 5 6 7 8 9 10 11 12
133
FTUS43 KMPX 182327
TAFRNH
TAF
KRNH 182327Z 1900/1924 19003KT P6SM BKN200
     FM191500 19007KT P6SM BKN150
     FM191800 20008KT P6SM BKN150=

USA.gov is the U.S. government's official web portal to all federal, state and local government web resources and services.